createdAt,value
2019-04-21T07:44:20.824Z,43.37
2019-04-21T07:46:49.500Z,35.96
2019-04-21T07:49:39.941Z,33.98
2019-04-21T07:52:34.924Z,31.34
2019-04-21T07:57:37.683Z,29.88
2019-04-21T08:00:20.691Z,32.34
2019-04-21T08:03:00.533Z,31.49
2019-04-21T08:05:20.592Z,29.96
2019-04-21T08:07:59.740Z,29.32
2019-04-21T08:10:21.945Z,33.17
2019-04-21T08:12:54.418Z,29.43
2019-04-21T08:15:34.015Z,26.93
2019-04-21T08:18:19.053Z,100.00
2019-04-21T08:20:42.526Z,30.73
2019-04-21T08:23:20.407Z,50.53
2019-04-21T08:26:01.086Z,58.50
2019-04-21T08:28:26.423Z,60.21
2019-04-21T08:30:54.384Z,59.46
2019-04-21T08:38:37.758Z,49.77
2019-04-21T08:43:48.116Z,52.87
2019-04-21T08:46:20.235Z,59.23
2019-04-21T08:51:41.274Z,58.83
2019-04-21T08:54:05.531Z,60.20
2019-04-21T08:56:36.495Z,49.04
2019-04-21T08:59:25.503Z,60.95
2019-04-21T09:02:03.015Z,62.01
2019-04-21T09:04:35.177Z,61.77
2019-04-21T09:07:25.662Z,67.04
2019-04-21T09:09:45.676Z,64.46
2019-04-21T09:12:10.587Z,48.86
2019-04-21T09:14:50.596Z,58.33
2019-04-21T09:17:15.295Z,60.92
2019-04-21T09:19:58.067Z,52.40
2019-04-21T09:22:24.370Z,62.18
2019-04-21T09:24:59.658Z,63.32
2019-04-21T09:27:30.501Z,61.13
2019-04-21T09:29:54.050Z,48.21
2019-04-21T09:32:25.220Z,66.89
2019-04-21T09:34:54.086Z,65.36
2019-04-21T09:37:39.981Z,58.26
2019-04-21T09:40:01.364Z,59.30
2019-04-21T09:42:40.993Z,58.22
2019-04-21T09:45:10.129Z,57.41
2019-04-21T09:47:50.205Z,59.30
2019-04-21T09:50:15.156Z,62.11
2019-04-21T09:52:54.194Z,62.88
2019-04-21T09:55:24.216Z,64.03
2019-04-21T09:57:57.722Z,58.35
2019-04-21T10:00:31.455Z,58.29
2019-04-21T10:03:06.678Z,54.08
2019-04-21T10:05:34.109Z,52.83
2019-04-21T10:08:05.899Z,60.86
2019-04-21T10:10:38.382Z,49.26
2019-04-21T10:13:10.785Z,57.64
2019-04-21T10:15:45.975Z,54.50
2019-04-21T10:18:19.564Z,62.60
2019-04-21T10:20:51.276Z,57.65
2019-04-21T10:23:23.312Z,53.17
2019-04-21T10:25:55.015Z,58.47
2019-04-21T10:28:26.955Z,62.68
2019-04-21T10:31:00.675Z,54.86
2019-04-21T10:33:34.480Z,57.24
2019-04-21T10:36:07.212Z,55.25
2019-04-21T10:38:44.726Z,59.94
2019-04-21T10:41:12.183Z,60.63
2019-04-21T10:43:45.098Z,46.15
2019-04-21T10:46:17.040Z,58.40
2019-04-21T10:48:50.632Z,49.27
2019-04-21T10:51:23.148Z,43.46
2019-04-21T10:53:56.010Z,50.61
2019-04-21T10:56:33.193Z,43.95
2019-04-21T10:59:00.907Z,50.15
2019-04-21T11:01:32.438Z,46.28
2019-04-21T11:04:07.612Z,42.49
2019-04-21T11:06:40.193Z,41.60
2019-04-21T11:09:11.943Z,40.46
2019-04-21T11:11:46.460Z,31.25
2019-04-21T11:14:17.778Z,25.72
2019-04-21T11:16:51.528Z,26.18
2019-04-21T11:19:24.165Z,24.01
2019-04-21T11:21:56.886Z,26.12
2019-04-21T11:24:29.546Z,24.76
2019-04-21T11:27:01.853Z,26.31
2019-04-21T11:29:35.106Z,25.28
2019-04-21T11:32:07.225Z,27.81
2019-04-21T11:34:39.038Z,24.12
2019-04-21T11:37:12.410Z,24.17
2019-04-21T11:39:52.102Z,27.40
2019-04-21T11:42:19.588Z,22.88
2019-04-21T11:44:51.561Z,24.07
2019-04-21T11:47:24.776Z,24.74
2019-04-21T11:49:57.060Z,25.52
2019-04-21T11:52:29.172Z,23.01
2019-04-21T11:55:00.748Z,21.79
2019-04-21T11:57:36.714Z,24.00
2019-04-21T12:00:06.612Z,26.44
2019-04-21T12:02:39.474Z,24.12
2019-04-21T12:05:12.117Z,23.53
2019-04-21T12:07:43.647Z,23.89
2019-04-21T12:10:17.577Z,23.59
2019-04-21T12:12:49.366Z,21.65
2019-04-21T12:15:20.901Z,25.80
2019-04-21T12:17:52.445Z,24.16
2019-04-21T12:20:24.402Z,27.19
2019-04-21T12:22:56.977Z,25.05
2019-04-21T12:25:31.372Z,26.11
2019-04-21T12:28:03.684Z,23.62
2019-04-21T12:30:35.774Z,26.10
2019-04-21T12:33:09.870Z,24.49
2019-04-21T12:35:41.855Z,26.13
2019-04-21T12:38:13.561Z,25.84
2019-04-21T12:40:46.439Z,24.68
2019-04-21T12:43:19.002Z,25.37
2019-04-21T12:45:51.802Z,24.73
2019-04-21T12:48:24.119Z,23.32
2019-04-21T12:50:57.540Z,25.59
2019-04-21T12:53:29.792Z,23.71
2019-04-21T12:56:02.148Z,23.29
2019-04-21T12:58:35.188Z,23.30
2019-04-21T13:01:07.194Z,25.92
2019-04-21T13:03:39.746Z,23.26
2019-04-21T13:06:11.831Z,24.51
2019-04-21T13:08:51.866Z,34.15
2019-04-21T13:11:15.061Z,26.77
2019-04-21T13:13:46.029Z,29.46
2019-04-21T13:16:16.599Z,24.77
2019-04-21T13:18:49.159Z,24.63
2019-04-21T13:21:20.217Z,22.80
2019-04-21T13:23:50.956Z,25.04
2019-04-21T13:30:28.923Z,25.41
2019-04-21T13:33:00.885Z,21.74
2019-04-21T13:35:33.200Z,23.96
2019-04-21T13:38:17.223Z,22.88
2019-04-21T13:40:57.041Z,22.40
2019-04-21T13:43:13.103Z,25.58
2019-04-21T13:45:45.817Z,20.81
2019-04-21T13:48:18.925Z,20.70
2019-04-21T13:50:51.203Z,21.75
2019-04-21T13:53:22.822Z,20.58
2019-04-21T13:55:54.450Z,20.76
2019-04-21T13:58:26.408Z,23.83
2019-04-21T14:00:58.169Z,20.31
2019-04-21T14:03:31.319Z,20.59
2019-04-21T14:06:04.407Z,20.14
2019-04-21T14:08:51.165Z,20.45
2019-04-21T14:11:25.130Z,20.57
2019-04-21T14:24:12.931Z,24.40
2019-04-21T14:29:37.658Z,25.58
2019-04-21T14:32:10.586Z,20.96
2019-04-21T14:34:44.091Z,21.38
2019-04-21T14:37:17.016Z,19.64
2019-04-21T14:39:57.798Z,19.12
2019-04-21T14:42:22.237Z,19.86
2019-04-21T14:44:54.708Z,19.52
2019-04-21T14:47:29.372Z,19.66
2019-04-21T14:50:15.553Z,20.64
2019-04-21T14:52:48.760Z,20.33
2019-04-21T14:55:22.878Z,20.62
2019-04-21T14:57:54.930Z,21.16
2019-04-21T15:00:31.184Z,19.93
2019-04-21T15:03:03.723Z,24.28
2019-04-21T15:05:35.588Z,21.39
2019-04-21T15:08:07.299Z,21.36
2019-04-21T15:10:39.037Z,20.98
2019-04-21T15:13:11.859Z,21.75
2019-04-21T15:15:45.687Z,21.62
2019-04-21T15:18:18.565Z,24.68
2019-04-21T15:20:50.700Z,23.91
2019-04-21T15:23:25.239Z,24.17
2019-04-21T15:25:56.475Z,26.17
2019-04-21T15:28:30.695Z,28.89
2019-04-21T15:31:02.866Z,30.00
2019-04-21T15:33:35.045Z,26.64
2019-04-21T15:36:07.177Z,25.33
2019-04-21T15:38:40.075Z,23.35
2019-04-21T15:41:12.616Z,22.39
2019-04-21T15:43:44.782Z,22.36
2019-04-21T15:46:16.513Z,24.47
2019-04-21T15:48:48.846Z,21.14
2019-04-21T15:51:21.656Z,25.91
2019-04-21T15:53:53.859Z,25.84
2019-04-21T15:56:31.038Z,22.90
2019-04-21T15:59:04.430Z,22.55
2019-04-21T16:01:38.888Z,23.13
2019-04-21T16:04:10.814Z,23.55
2019-04-21T16:06:43.653Z,21.49
2019-04-21T16:09:20.032Z,23.29
2019-04-21T16:11:49.724Z,24.48
2019-04-21T16:14:22.778Z,22.60
2019-04-21T16:16:54.429Z,26.89
2019-04-21T16:19:27.188Z,29.04
2019-04-21T16:21:59.133Z,30.01
2019-04-21T16:24:30.925Z,28.29
2019-04-21T16:27:05.356Z,31.73
2019-04-21T16:35:06.622Z,39.91
2019-04-21T16:37:35.345Z,34.41
2019-04-21T16:40:09.517Z,28.58
2019-04-21T16:42:42.487Z,32.23
2019-04-21T16:45:14.931Z,33.73
2019-04-21T16:47:49.069Z,32.82
2019-04-21T16:50:21.543Z,36.16
2019-04-21T16:52:56.117Z,35.54
2019-04-21T16:55:35.376Z,37.25
2019-04-21T16:58:14.622Z,34.35
2019-04-21T17:00:53.941Z,37.71
2019-04-21T17:03:17.112Z,38.50
2019-04-21T17:05:50.099Z,38.58
2019-04-21T17:08:21.953Z,39.02
2019-04-21T17:11:02.996Z,39.06
2019-04-21T17:13:27.256Z,39.17
2019-04-21T17:16:16.440Z,39.19
2019-04-21T17:18:47.655Z,40.19
2019-04-21T17:21:07.078Z,39.81
2019-04-21T17:23:38.993Z,40.87
2019-04-21T17:26:10.971Z,41.71
2019-04-21T17:28:42.715Z,40.07
2019-04-21T17:31:14.333Z,41.85
2019-04-21T17:33:47.173Z,43.06
2019-04-21T17:36:21.021Z,42.33
2019-04-21T17:38:52.711Z,42.53
2019-04-21T17:41:33.368Z,43.36
2019-04-21T17:43:58.315Z,44.35
2019-04-21T17:46:40.789Z,43.89
2019-04-21T17:49:05.209Z,43.99
2019-04-21T17:51:39.461Z,44.75
2019-04-21T17:54:21.323Z,44.56
2019-04-21T17:57:10.970Z,45.59
2019-04-21T17:59:53.684Z,45.57
2019-04-21T18:02:11.031Z,45.84
2019-04-21T18:04:49.310Z,45.73
2019-04-21T18:07:26.358Z,45.28
2019-04-21T18:10:02.107Z,45.26
2019-04-21T18:12:29.200Z,43.61
2019-04-21T18:14:59.251Z,46.48
2019-04-21T18:17:20.678Z,46.43
2019-04-21T18:19:55.099Z,44.01
2019-04-21T18:22:47.467Z,46.84
2019-04-21T18:25:32.035Z,48.04
2019-04-21T18:27:52.417Z,47.63
2019-04-21T18:30:48.792Z,47.16
2019-04-21T18:33:27.154Z,48.94
2019-04-21T18:36:01.914Z,49.07
2019-04-21T18:38:55.052Z,47.43
2019-04-21T18:41:09.896Z,47.67
2019-04-21T18:44:29.187Z,48.11
2019-04-21T18:46:58.305Z,46.58
2019-04-21T18:49:19.439Z,48.71
2019-04-21T18:52:19.211Z,48.80
2019-04-21T18:54:58.233Z,46.70
2019-04-21T18:57:24.988Z,48.87
2019-04-21T18:59:49.467Z,48.26
2019-04-21T19:02:22.472Z,48.78
2019-04-21T19:05:01.503Z,49.61
2019-04-21T19:07:45.391Z,50.39
2019-04-21T19:10:37.719Z,49.14
2019-04-21T19:13:20.166Z,48.41
2019-04-21T19:15:29.960Z,48.69
2019-04-21T19:18:35.698Z,48.72
2019-04-21T19:20:34.774Z,48.94
2019-04-21T19:23:08.662Z,50.33
2019-04-21T19:25:41.371Z,50.84
2019-04-21T19:28:16.366Z,48.52
2019-04-21T19:31:00.815Z,48.98
2019-04-21T19:33:22.061Z,50.69
2019-04-21T19:35:37.356Z,48.38
2019-04-21T19:38:13.691Z,50.55
2019-04-21T19:40:56.556Z,49.67
2019-04-21T19:43:41.661Z,50.80
2019-04-21T19:46:10.006Z,51.76
2019-04-21T19:48:52.720Z,51.13
2019-04-21T19:51:16.948Z,51.24
2019-04-21T19:53:44.877Z,52.16
2019-04-21T19:56:05.933Z,50.58
2019-04-21T19:58:41.751Z,50.91
2019-04-21T20:01:11.801Z,51.81
2019-04-21T20:03:49.864Z,51.77
2019-04-21T20:06:38.024Z,51.72
2019-04-21T20:09:08.345Z,52.82
2019-04-21T20:11:38.722Z,53.40
2019-04-21T20:14:43.073Z,52.07
2019-04-21T20:16:44.047Z,53.32
2019-04-21T20:19:09.599Z,51.69
2019-04-21T20:21:37.037Z,52.89
2019-04-21T20:24:12.852Z,53.53
2019-04-21T20:26:52.058Z,55.16
2019-04-21T20:29:32.450Z,54.77
2019-04-21T20:32:04.354Z,54.23
2019-04-21T20:34:44.490Z,55.42
2019-04-21T20:37:19.112Z,54.73
2019-04-21T20:39:39.259Z,53.08
2019-04-21T20:42:15.661Z,54.33
2019-04-21T20:44:54.595Z,54.46
2019-04-21T20:47:20.130Z,55.14
2019-04-21T20:49:57.086Z,55.54
2019-04-21T20:52:36.998Z,55.35
2019-04-21T20:55:02.148Z,55.43
2019-04-21T20:57:39.059Z,55.24
2019-04-21T21:00:17.219Z,55.39
2019-04-21T21:02:55.444Z,52.92
2019-04-21T21:05:17.500Z,53.97
2019-04-21T21:07:57.111Z,54.54
2019-04-21T21:10:29.751Z,53.62
2019-04-21T21:13:07.209Z,54.64
2019-04-21T21:15:34.837Z,54.43
2019-04-21T21:18:22.775Z,53.15
2019-04-21T21:20:43.312Z,54.99
2019-04-21T21:23:09.222Z,54.15
2019-04-21T21:25:51.127Z,54.13
2019-04-21T21:28:22.603Z,53.97
2019-04-21T21:30:52.713Z,54.41
2019-04-21T21:33:25.699Z,50.63
2019-04-21T21:36:06.714Z,53.22
2019-04-21T21:38:37.533Z,52.93
2019-04-21T21:40:59.867Z,53.59
2019-04-21T21:43:26.925Z,54.33
2019-04-21T21:46:01.576Z,55.37
2019-04-21T21:48:45.132Z,51.68
2019-04-21T21:51:16.664Z,53.90
2019-04-21T21:53:39.950Z,53.90
2019-04-21T21:56:11.287Z,51.59
2019-04-21T21:58:46.158Z,50.00
2019-04-21T22:01:21.651Z,52.19
2019-04-21T22:03:59.158Z,53.33
2019-04-21T22:06:36.284Z,54.00
2019-04-21T22:08:58.545Z,53.92
2019-04-21T22:11:31.761Z,54.43
2019-04-21T22:14:08.001Z,53.79
2019-04-21T22:16:50.346Z,54.98
2019-04-21T22:19:29.625Z,55.37
2019-04-21T22:21:59.482Z,55.18
2019-04-21T22:24:33.473Z,54.17
2019-04-21T22:26:52.417Z,55.26
2019-04-21T22:29:23.577Z,56.17
2019-04-21T22:32:04.226Z,55.69
2019-04-21T22:34:35.969Z,55.55
2019-04-21T22:37:23.207Z,56.30
2019-04-21T22:39:56.904Z,55.64
2019-04-21T22:42:15.357Z,54.06
2019-04-21T22:44:42.842Z,55.53
2019-04-21T22:47:21.924Z,53.73
2019-04-21T22:49:48.563Z,54.33
2019-04-21T22:52:24.029Z,55.39
2019-04-21T22:54:54.164Z,55.38
2019-04-21T22:57:32.402Z,55.66
2019-04-21T23:00:05.096Z,54.93
2019-04-21T23:02:38.634Z,53.88
2019-04-21T23:05:09.747Z,55.04
2019-04-21T23:07:50.301Z,55.08
2019-04-21T23:10:15.056Z,54.53
2019-04-21T23:12:47.954Z,54.31
2019-04-21T23:15:24.643Z,53.20
2019-04-21T23:18:17.699Z,55.16
2019-04-21T23:20:50.374Z,55.61
2019-04-21T23:23:16.143Z,57.52
2019-04-21T23:25:46.238Z,56.48
2019-04-21T23:28:24.000Z,56.68
2019-04-21T23:31:05.596Z,56.06
2019-04-21T23:33:16.392Z,57.40
2019-04-21T23:35:49.371Z,57.68
2019-04-21T23:38:27.904Z,57.99
2019-04-21T23:40:58.625Z,57.89
2019-04-21T23:43:31.097Z,57.43
2019-04-21T23:46:09.039Z,55.56
2019-04-21T23:48:48.859Z,57.26
2019-04-21T23:51:21.853Z,57.39
2019-04-21T23:53:43.687Z,56.70
2019-04-21T23:56:25.787Z,58.16
2019-04-21T23:58:54.693Z,58.48
